createdAt,value
2023-03-25T00:01:14.196Z,1.77
2023-03-25T00:03:19.824Z,1.23
2023-03-25T00:05:25.421Z,1.67
2023-03-25T00:07:31.951Z,1.75
2023-03-25T00:09:37.543Z,1.58
2023-03-25T00:11:42.893Z,2.83
2023-03-25T00:13:48.724Z,1.60
2023-03-25T00:15:58.297Z,1.13
2023-03-25T00:18:06.579Z,1.40
2023-03-25T00:20:14.271Z,1.08
2023-03-25T00:22:20.835Z,1.10
2023-03-25T00:24:26.190Z,1.00
2023-03-25T00:26:32.450Z,0.90
2023-03-25T00:28:40.699Z,1.75
2023-03-25T00:30:47.872Z,1.08
2023-03-25T00:32:53.546Z,1.00
2023-03-25T00:35:01.280Z,0.98
2023-03-25T00:37:06.449Z,0.90
2023-03-25T00:39:12.247Z,1.30
2023-03-25T00:41:23.481Z,1.08
2023-03-25T00:43:29.191Z,1.23
2023-03-25T00:45:36.529Z,1.83
2023-03-25T00:47:42.146Z,1.20
2023-03-25T00:49:47.607Z,0.82
2023-03-25T00:51:55.496Z,1.58
2023-03-25T00:54:03.525Z,0.77
2023-03-25T00:56:10.133Z,1.17
2023-03-25T00:58:15.852Z,0.98
2023-03-25T01:00:22.078Z,1.02
2023-03-25T01:02:27.815Z,1.38
2023-03-25T01:04:33.486Z,0.80
2023-03-25T01:06:41.748Z,1.77
2023-03-25T01:08:49.900Z,0.65
2023-03-25T01:10:56.667Z,0.70
2023-03-25T01:13:01.715Z,0.82
2023-03-25T01:15:07.642Z,0.68
2023-03-25T01:17:13.267Z,0.57
2023-03-25T01:19:19.241Z,0.60
2023-03-25T01:21:24.880Z,0.80
2023-03-25T01:23:30.174Z,0.73
2023-03-25T01:25:38.306Z,0.45
2023-03-25T01:27:43.375Z,0.80
2023-03-25T01:29:48.418Z,0.60
2023-03-25T01:31:53.791Z,1.17
2023-03-25T01:34:00.028Z,0.50
2023-03-25T01:36:09.525Z,0.80
2023-03-25T01:38:15.221Z,0.60
2023-03-25T01:40:24.362Z,0.77
2023-03-25T01:42:33.217Z,0.88
2023-03-25T01:45:17.332Z,0.60
2023-03-25T01:49:33.523Z,0.65
2023-03-25T01:51:43.444Z,0.73
2023-03-25T01:53:50.152Z,0.80
2023-03-25T01:55:56.746Z,0.88
2023-03-25T01:58:10.959Z,0.50
2023-03-25T02:00:19.045Z,0.75
2023-03-25T02:02:36.808Z,0.70
2023-03-25T02:04:59.296Z,1.58
2023-03-25T02:07:08.477Z,0.60
2023-03-25T02:09:16.416Z,0.70
2023-03-25T02:11:21.527Z,1.00
2023-03-25T02:13:29.782Z,0.80
2023-03-25T02:15:45.706Z,1.00
2023-03-25T02:18:07.427Z,0.60
2023-03-25T02:20:48.325Z,0.90
2023-03-25T02:23:43.170Z,1.20
2023-03-25T02:26:10.034Z,1.02
2023-03-25T02:28:29.404Z,0.80
2023-03-25T02:31:12.044Z,0.82
2023-03-25T02:34:03.657Z,0.90
2023-03-25T02:37:04.172Z,1.35
2023-03-25T02:39:17.693Z,0.93
2023-03-25T02:41:30.880Z,0.80
2023-03-25T02:45:49.098Z,0.77
2023-03-25T02:48:00.915Z,0.80
2023-03-25T02:50:11.982Z,0.50
2023-03-25T02:52:22.338Z,1.00
2023-03-25T02:54:34.697Z,0.68
2023-03-25T02:56:44.755Z,1.10
2023-03-25T02:58:52.303Z,0.50
2023-03-25T03:00:59.044Z,0.55
2023-03-25T03:03:07.488Z,0.90
2023-03-25T03:05:27.081Z,0.65
2023-03-25T03:07:37.445Z,0.50
2023-03-25T03:09:53.713Z,0.90
2023-03-25T03:12:22.026Z,0.90
2023-03-25T03:14:40.212Z,1.13
2023-03-25T03:16:52.723Z,0.98
2023-03-25T03:19:08.860Z,2.35
2023-03-25T03:21:23.360Z,1.55
2023-03-25T03:23:37.127Z,1.20
2023-03-25T03:25:53.533Z,0.90
2023-03-25T03:28:04.716Z,0.90
2023-03-25T03:30:16.442Z,1.00
2023-03-25T03:32:30.951Z,0.93
2023-03-25T03:34:45.012Z,1.00
2023-03-25T03:36:55.031Z,0.95
2023-03-25T03:39:07.458Z,1.00
2023-03-25T03:41:22.354Z,1.05
2023-03-25T03:43:34.439Z,1.55
2023-03-25T03:45:46.627Z,1.02
2023-03-25T03:47:57.887Z,1.08
2023-03-25T03:50:09.754Z,1.38
2023-03-25T03:52:21.705Z,1.50
2023-03-25T03:54:32.063Z,1.33
2023-03-25T03:56:46.765Z,1.60
2023-03-25T03:58:58.657Z,1.55
2023-03-25T04:01:12.520Z,1.92
2023-03-25T04:03:24.643Z,1.50
2023-03-25T04:05:32.518Z,1.85
2023-03-25T04:07:43.218Z,2.50
2023-03-25T04:10:03.043Z,2.30
2023-03-25T04:12:17.994Z,2.83
2023-03-25T04:14:23.807Z,2.88
2023-03-25T04:16:29.178Z,2.33
2023-03-25T04:18:34.235Z,2.63
2023-03-25T04:20:44.905Z,2.80
2023-03-25T04:22:52.019Z,3.63
2023-03-25T04:25:00.368Z,2.60
2023-03-25T04:27:05.699Z,2.40
2023-03-25T04:29:13.942Z,2.22
2023-03-25T04:31:20.382Z,3.08
2023-03-25T04:33:25.548Z,2.08
2023-03-25T04:35:33.253Z,2.20
2023-03-25T04:37:38.399Z,2.08
2023-03-25T04:39:43.460Z,2.10
2023-03-25T04:41:48.749Z,2.55
2023-03-25T04:43:53.874Z,2.58
2023-03-25T04:46:02.656Z,2.50
2023-03-25T04:48:15.174Z,2.10
2023-03-25T04:50:24.853Z,4.22
2023-03-25T04:52:29.920Z,2.17
2023-03-25T04:54:34.948Z,2.10
2023-03-25T04:56:40.610Z,2.30
2023-03-25T04:58:45.839Z,1.73
2023-03-25T05:00:54.326Z,2.28
2023-03-25T05:03:02.416Z,2.17
2023-03-25T05:05:08.109Z,2.08
2023-03-25T05:07:13.445Z,1.83
2023-03-25T05:09:22.325Z,2.10
2023-03-25T05:11:27.583Z,2.38
2023-03-25T05:13:32.845Z,1.98
2023-03-25T05:15:40.017Z,2.80
2023-03-25T05:17:46.501Z,2.30
2023-03-25T05:19:55.154Z,2.03
2023-03-25T05:22:02.326Z,2.00
2023-03-25T05:24:10.479Z,2.38
2023-03-25T05:26:15.571Z,2.92
2023-03-25T05:28:21.469Z,2.72
2023-03-25T05:30:32.552Z,1.95
2023-03-25T05:32:41.502Z,2.10
2023-03-25T05:34:46.885Z,2.42
2023-03-25T05:36:54.606Z,2.28
2023-03-25T05:38:59.959Z,2.10
2023-03-25T05:41:05.003Z,1.70
2023-03-25T05:43:11.003Z,1.92
2023-03-25T05:45:16.031Z,1.95
2023-03-25T05:47:24.005Z,1.80
2023-03-25T05:49:29.958Z,1.73
2023-03-25T05:51:38.704Z,1.45
2023-03-25T05:53:50.145Z,1.90
2023-03-25T05:55:55.216Z,1.73
2023-03-25T05:58:01.312Z,2.58
2023-03-25T06:00:08.551Z,2.25
2023-03-25T06:02:19.771Z,2.58
2023-03-25T06:04:25.689Z,2.28
2023-03-25T06:06:32.350Z,3.13
2023-03-25T06:08:37.521Z,2.67
2023-03-25T06:10:46.099Z,2.85
2023-03-25T06:12:53.207Z,2.47
2023-03-25T06:14:58.239Z,2.95
2023-03-25T06:17:03.460Z,2.53
2023-03-25T06:19:09.965Z,2.45
2023-03-25T06:21:15.816Z,2.78
2023-03-25T06:23:22.405Z,2.10
2023-03-25T06:25:28.617Z,2.50
2023-03-25T06:27:40.480Z,2.40
2023-03-25T06:29:47.311Z,2.47
2023-03-25T06:31:53.028Z,1.98
2023-03-25T06:34:00.051Z,2.40
2023-03-25T06:36:05.170Z,2.63
2023-03-25T06:38:10.935Z,3.03
2023-03-25T06:40:35.162Z,1.95
2023-03-25T06:42:44.557Z,1.80
2023-03-25T06:45:09.748Z,1.63
2023-03-25T06:47:20.649Z,1.52
2023-03-25T06:49:28.534Z,1.60
2023-03-25T06:51:35.121Z,1.70
2023-03-25T06:53:40.530Z,1.70
2023-03-25T06:55:46.137Z,1.58
2023-03-25T06:57:57.369Z,2.08
2023-03-25T07:00:02.456Z,1.42
2023-03-25T07:02:07.724Z,1.48
2023-03-25T07:04:13.045Z,1.40
2023-03-25T07:06:21.423Z,1.10
2023-03-25T07:08:26.484Z,1.77
2023-03-25T07:10:32.705Z,1.30
2023-03-25T07:12:38.058Z,1.35
2023-03-25T07:14:46.647Z,2.17
2023-03-25T07:16:52.247Z,1.63
2023-03-25T07:18:59.685Z,2.00
2023-03-25T07:21:04.975Z,2.72
2023-03-25T07:23:10.008Z,1.73
2023-03-25T07:25:16.082Z,1.33
2023-03-25T07:27:21.412Z,1.90
2023-03-25T07:29:36.533Z,1.52
2023-03-25T07:31:44.453Z,1.88
2023-03-25T07:33:49.508Z,1.80
2023-03-25T07:35:55.319Z,1.98
2023-03-25T07:38:00.629Z,1.27
2023-03-25T07:40:06.582Z,1.38
2023-03-25T07:42:11.852Z,1.50
2023-03-25T07:44:38.560Z,1.98
2023-03-25T07:46:47.969Z,1.60
2023-03-25T07:48:53.381Z,1.30
2023-03-25T07:50:58.795Z,1.42
2023-03-25T07:53:03.856Z,1.30
2023-03-25T07:55:11.063Z,1.20
2023-03-25T07:57:16.246Z,1.27
2023-03-25T07:59:21.355Z,0.80
2023-03-25T08:01:26.885Z,1.08
2023-03-25T08:03:35.276Z,1.58
2023-03-25T08:05:40.853Z,1.25
2023-03-25T08:07:46.164Z,1.08
2023-03-25T08:09:51.310Z,1.63
2023-03-25T08:11:57.000Z,1.50
2023-03-25T08:14:02.375Z,1.63
2023-03-25T08:16:15.141Z,0.93
2023-03-25T08:18:20.443Z,1.98
2023-03-25T08:20:28.063Z,1.33
2023-03-25T08:22:33.269Z,1.65
2023-03-25T08:24:38.381Z,1.05
2023-03-25T08:26:43.852Z,1.10
2023-03-25T08:28:49.650Z,2.25
2023-03-25T08:30:58.269Z,1.02
2023-03-25T08:33:03.335Z,0.90
2023-03-25T08:35:10.135Z,2.08
2023-03-25T08:37:18.165Z,2.75
2023-03-25T08:39:30.141Z,2.30
2023-03-25T08:41:35.243Z,2.05
2023-03-25T08:43:40.468Z,1.20
2023-03-25T08:45:45.597Z,1.60
2023-03-25T08:47:50.745Z,1.20
2023-03-25T08:49:55.871Z,1.50
2023-03-25T08:52:02.024Z,1.30
2023-03-25T08:54:10.076Z,1.77
2023-03-25T08:56:15.143Z,1.38
2023-03-25T08:58:21.104Z,1.30
2023-03-25T09:00:27.566Z,1.60
2023-03-25T09:02:34.601Z,1.40
2023-03-25T09:04:40.993Z,1.25
2023-03-25T09:06:47.169Z,1.50
2023-03-25T09:08:56.169Z,1.65
2023-03-25T09:11:03.875Z,1.52
2023-03-25T09:13:09.669Z,1.52
2023-03-25T09:15:15.721Z,1.88
2023-03-25T09:17:21.074Z,1.58
2023-03-25T09:19:26.438Z,1.25
2023-03-25T09:21:31.533Z,2.20
2023-03-25T09:23:36.609Z,1.30
2023-03-25T09:25:41.941Z,1.70
2023-03-25T09:27:49.849Z,1.75
2023-03-25T09:29:55.120Z,2.72
2023-03-25T09:32:01.206Z,1.58
2023-03-25T09:34:07.081Z,1.70
2023-03-25T09:36:13.208Z,1.48
2023-03-25T09:38:18.558Z,1.60
2023-03-25T09:40:25.294Z,1.90
2023-03-25T09:42:42.434Z,1.77
2023-03-25T09:45:03.060Z,1.77
2023-03-25T09:47:16.794Z,2.33
2023-03-25T09:49:26.348Z,2.30
2023-03-25T09:51:36.742Z,2.40
2023-03-25T09:53:49.684Z,2.10
2023-03-25T09:55:55.358Z,1.48
2023-03-25T09:58:08.082Z,2.25
2023-03-25T10:00:23.126Z,1.65
2023-03-25T10:02:41.746Z,3.50
2023-03-25T10:05:16.478Z,1.67
2023-03-25T10:07:46.219Z,1.73
2023-03-25T10:10:02.076Z,2.25
2023-03-25T10:12:29.640Z,2.58
2023-03-25T10:14:44.577Z,1.70
2023-03-25T10:17:06.471Z,1.90
2023-03-25T10:19:30.774Z,2.30
2023-03-25T10:21:44.280Z,2.70
2023-03-25T10:23:58.562Z,2.00
2023-03-25T10:26:12.174Z,2.35
2023-03-25T10:28:25.173Z,2.40
2023-03-25T10:30:35.988Z,2.60
2023-03-25T10:32:48.431Z,3.00
2023-03-25T10:34:56.512Z,1.85
2023-03-25T10:37:05.832Z,1.00
2023-03-25T10:39:21.730Z,0.30
2023-03-25T10:41:32.566Z,0.38
2023-03-25T10:43:41.671Z,0.30
2023-03-25T10:45:49.503Z,0.40
2023-03-25T10:48:06.390Z,0.47
2023-03-25T10:50:17.461Z,0.32
2023-03-25T10:52:23.121Z,0.30
2023-03-25T10:54:34.090Z,0.40
2023-03-25T10:56:46.992Z,0.40
2023-03-25T10:58:55.808Z,1.05
2023-03-25T11:01:02.317Z,0.60
2023-03-25T11:03:18.950Z,0.50
2023-03-25T11:05:30.210Z,0.73
2023-03-25T11:07:39.137Z,0.63
2023-03-25T11:09:44.541Z,0.60
2023-03-25T11:11:50.454Z,0.40
2023-03-25T11:14:00.111Z,0.40
2023-03-25T11:16:07.791Z,0.45
2023-03-25T11:18:23.560Z,0.73
2023-03-25T11:20:33.547Z,0.57
2023-03-25T11:22:41.029Z,0.98
2023-03-25T11:24:50.925Z,0.85
2023-03-25T11:26:57.003Z,1.20
2023-03-25T11:29:08.838Z,1.48
2023-03-25T11:31:20.259Z,1.20
2023-03-25T11:33:29.872Z,1.15
2023-03-25T11:35:42.453Z,1.13
2023-03-25T11:37:50.196Z,1.27
2023-03-25T11:39:57.949Z,1.20
2023-03-25T11:42:12.967Z,0.80
2023-03-25T11:44:27.340Z,1.00
2023-03-25T11:46:34.271Z,0.55
2023-03-25T11:48:46.248Z,0.57
2023-03-25T11:50:53.522Z,0.70
2023-03-25T11:53:02.244Z,0.40
2023-03-25T11:55:08.726Z,1.17
2023-03-25T11:57:20.213Z,0.90
2023-03-25T11:59:28.526Z,0.75
2023-03-25T12:01:43.812Z,0.60
2023-03-25T12:03:52.099Z,1.27
2023-03-25T12:06:03.628Z,0.70
2023-03-25T12:08:17.320Z,1.30
2023-03-25T12:10:31.510Z,0.60
2023-03-25T12:12:47.062Z,0.60
2023-03-25T12:15:04.694Z,0.68
2023-03-25T12:17:21.252Z,0.90
2023-03-25T12:19:43.922Z,0.82
2023-03-25T12:22:12.539Z,0.63
2023-03-25T12:24:37.409Z,0.85
2023-03-25T12:26:54.703Z,0.65
2023-03-25T12:29:19.063Z,0.60
2023-03-25T12:31:43.302Z,0.50
2023-03-25T12:34:04.381Z,0.50
2023-03-25T12:36:41.836Z,0.90
2023-03-25T12:39:02.067Z,0.70
2023-03-25T12:41:21.158Z,0.80
2023-03-25T12:43:37.868Z,1.25
2023-03-25T12:46:09.561Z,0.63
2023-03-25T12:48:29.187Z,1.15
2023-03-25T12:50:46.879Z,0.75
2023-03-25T12:53:03.320Z,0.90
2023-03-25T12:55:37.772Z,0.52
2023-03-25T12:58:03.489Z,0.98
2023-03-25T13:00:37.965Z,0.60
2023-03-25T13:03:17.170Z,1.02
2023-03-25T13:05:27.752Z,1.17
2023-03-25T13:07:41.296Z,0.80
2023-03-25T13:10:00.365Z,0.95
2023-03-25T13:12:13.016Z,0.80
2023-03-25T13:14:26.108Z,1.10
2023-03-25T13:16:34.833Z,1.40
2023-03-25T13:18:46.174Z,1.05
2023-03-25T13:21:09.043Z,0.90
2023-03-25T13:23:24.620Z,1.13
2023-03-25T13:25:39.162Z,0.98
2023-03-25T13:27:44.973Z,0.95
2023-03-25T13:29:54.325Z,0.93
2023-03-25T13:32:07.051Z,0.88
2023-03-25T13:34:26.850Z,1.23
2023-03-25T13:36:37.930Z,1.20
2023-03-25T13:38:49.214Z,1.15
2023-03-25T13:41:12.047Z,0.90
2023-03-25T13:43:29.606Z,0.90
2023-03-25T13:45:50.081Z,0.95
2023-03-25T13:48:04.708Z,0.95
2023-03-25T13:50:21.612Z,0.85
2023-03-25T13:52:31.204Z,0.90
2023-03-25T13:54:42.424Z,0.90
2023-03-25T13:57:27.197Z,0.70
2023-03-25T14:00:28.172Z,0.70
2023-03-25T14:03:21.479Z,0.68
2023-03-25T14:05:57.070Z,0.60
2023-03-25T14:08:39.243Z,0.80
2023-03-25T14:11:02.294Z,1.20
2023-03-25T14:13:14.714Z,0.82
2023-03-25T14:15:25.406Z,0.80
2023-03-25T14:17:33.112Z,1.05
2023-03-25T14:19:41.621Z,0.80
2023-03-25T14:21:51.220Z,0.75
2023-03-25T14:24:08.178Z,1.00
2023-03-25T14:26:14.572Z,0.77
2023-03-25T14:28:35.396Z,1.05
2023-03-25T14:30:42.624Z,1.00
2023-03-25T14:32:48.026Z,0.60
2023-03-25T14:35:00.708Z,0.90
2023-03-25T14:37:29.720Z,0.90
2023-03-25T14:39:43.117Z,0.90
2023-03-25T14:42:02.594Z,0.90
2023-03-25T14:44:28.930Z,0.90
2023-03-25T14:46:39.170Z,1.10
2023-03-25T14:48:47.932Z,0.95
2023-03-25T14:51:12.700Z,1.02
2023-03-25T14:53:17.810Z,0.93
2023-03-25T14:55:30.419Z,0.98
2023-03-25T14:57:44.873Z,0.95
2023-03-25T14:59:57.989Z,0.77
2023-03-25T15:02:14.506Z,0.80
2023-03-25T15:04:32.686Z,0.65
2023-03-25T15:06:38.828Z,0.88
2023-03-25T15:08:53.015Z,1.13
2023-03-25T15:11:10.301Z,1.80
2023-03-25T15:13:22.903Z,0.82
2023-03-25T15:15:36.247Z,0.50
2023-03-25T15:17:49.438Z,0.77
2023-03-25T15:22:38.033Z,0.60
2023-03-25T15:24:46.032Z,0.70
2023-03-25T15:26:52.410Z,0.70
2023-03-25T15:29:42.435Z,0.85
2023-03-25T15:32:04.441Z,1.58
2023-03-25T15:34:32.201Z,0.75
2023-03-25T15:36:55.085Z,0.80
2023-03-25T15:42:13.482Z,0.95
2023-03-25T15:44:49.884Z,1.02
2023-03-25T15:47:13.530Z,1.10
2023-03-25T15:49:45.288Z,0.80
2023-03-25T15:52:06.586Z,0.80
2023-03-25T15:54:38.301Z,0.88
2023-03-25T15:56:46.984Z,0.60
2023-03-25T15:59:00.002Z,1.10
2023-03-25T16:01:18.790Z,1.63
2023-03-25T16:03:31.992Z,0.82
2023-03-25T16:05:40.076Z,0.98
2023-03-25T16:07:46.986Z,1.02
2023-03-25T16:09:53.676Z,1.05
2023-03-25T16:12:03.155Z,1.75
2023-03-25T16:14:13.831Z,1.10
2023-03-25T16:16:20.808Z,1.33
2023-03-25T16:18:29.552Z,0.70
2023-03-25T16:20:38.216Z,1.20
2023-03-25T16:22:45.996Z,1.27
2023-03-25T16:24:53.878Z,0.98
2023-03-25T16:26:59.161Z,1.08
2023-03-25T16:29:12.674Z,0.95
2023-03-25T16:31:41.144Z,1.20
2023-03-25T16:33:49.008Z,1.02
2023-03-25T16:35:59.981Z,1.00
2023-03-25T16:38:07.602Z,0.82
2023-03-25T16:40:23.674Z,1.38
2023-03-25T16:42:33.892Z,0.98
2023-03-25T16:44:39.775Z,1.63
2023-03-25T16:46:45.323Z,1.08
2023-03-25T16:48:57.570Z,1.60
2023-03-25T16:51:10.035Z,1.30
2023-03-25T16:53:18.949Z,1.25
2023-03-25T16:55:35.142Z,0.77
2023-03-25T16:57:42.705Z,1.30
2023-03-25T16:59:50.420Z,1.33
2023-03-25T17:01:57.926Z,0.93
2023-03-25T17:04:17.641Z,1.08
2023-03-25T17:06:27.893Z,1.10
2023-03-25T17:08:33.620Z,1.35
2023-03-25T17:10:49.912Z,1.48
2023-03-25T17:13:01.459Z,1.27
2023-03-25T17:15:11.500Z,1.10
2023-03-25T17:17:34.927Z,1.10
2023-03-25T17:19:49.276Z,1.05
2023-03-25T17:22:16.720Z,1.02
2023-03-25T17:24:27.288Z,1.13
2023-03-25T17:26:37.561Z,0.98
2023-03-25T17:28:46.116Z,0.70
2023-03-25T17:30:51.650Z,1.13
2023-03-25T17:32:57.045Z,1.20
2023-03-25T17:35:10.559Z,1.17
2023-03-25T17:37:18.049Z,0.93
2023-03-25T17:39:26.719Z,1.50
2023-03-25T17:41:38.136Z,1.48
2023-03-25T17:43:46.026Z,1.00
2023-03-25T17:45:51.363Z,1.77
2023-03-25T17:47:56.881Z,1.02
2023-03-25T17:50:13.163Z,0.88
2023-03-25T17:52:18.175Z,1.38
2023-03-25T17:54:23.483Z,1.10
2023-03-25T17:56:30.978Z,0.80
2023-03-25T17:58:36.477Z,1.75
2023-03-25T18:00:41.841Z,0.70
2023-03-25T18:02:47.304Z,1.10
2023-03-25T18:04:52.599Z,0.90
2023-03-25T18:07:00.230Z,1.02
2023-03-25T18:09:06.466Z,1.13
2023-03-25T18:11:13.230Z,1.48
2023-03-25T18:13:18.592Z,1.13
2023-03-25T18:15:23.785Z,1.30
2023-03-25T18:17:28.831Z,1.10
2023-03-25T18:19:35.034Z,0.73
2023-03-25T18:21:40.314Z,0.85
2023-03-25T18:23:48.795Z,1.08
2023-03-25T18:25:53.914Z,0.88
2023-03-25T18:28:00.617Z,0.80
2023-03-25T18:30:13.719Z,0.85
2023-03-25T18:32:18.744Z,0.88
2023-03-25T18:34:25.997Z,1.02
2023-03-25T18:36:31.528Z,1.08
2023-03-25T18:38:36.594Z,0.98
2023-03-25T18:40:44.929Z,0.70
2023-03-25T18:42:51.337Z,0.70
2023-03-25T18:44:56.700Z,1.30
2023-03-25T18:47:01.740Z,0.98
2023-03-25T18:49:13.861Z,1.52
2023-03-25T18:51:18.920Z,0.85
2023-03-25T18:53:26.738Z,0.90
2023-03-25T18:55:33.898Z,1.27
2023-03-25T18:57:42.422Z,1.05
2023-03-25T18:59:47.466Z,1.08
2023-03-25T19:01:52.522Z,1.00
2023-03-25T19:04:02.426Z,0.77
2023-03-25T19:06:10.799Z,1.00
2023-03-25T19:08:20.893Z,1.17
2023-03-25T19:10:29.869Z,0.70
2023-03-25T19:12:34.900Z,0.82
2023-03-25T19:14:42.517Z,1.00
2023-03-25T19:17:01.232Z,0.77
2023-03-25T19:19:08.819Z,0.90
2023-03-25T19:21:19.144Z,0.80
2023-03-25T19:23:25.010Z,1.17
2023-03-25T19:25:31.007Z,1.00
2023-03-25T19:27:36.384Z,0.90
2023-03-25T19:29:44.354Z,1.02
2023-03-25T19:31:51.045Z,1.40
2023-03-25T19:33:56.222Z,1.13
2023-03-25T19:36:03.917Z,1.20
2023-03-25T19:38:09.784Z,0.90
2023-03-25T19:40:17.481Z,1.05
2023-03-25T19:42:22.525Z,0.85
2023-03-25T19:44:27.584Z,0.80
2023-03-25T19:46:35.629Z,0.77
2023-03-25T19:48:41.018Z,0.70
2023-03-25T19:50:46.046Z,1.55
2023-03-25T19:52:53.746Z,1.20
2023-03-25T19:54:58.762Z,0.98
2023-03-25T19:57:04.071Z,1.10
2023-03-25T19:59:09.192Z,1.50
2023-03-25T20:01:14.274Z,1.40
2023-03-25T20:03:24.234Z,1.10
2023-03-25T20:05:30.928Z,1.20
2023-03-25T20:07:36.032Z,1.00
2023-03-25T20:09:41.892Z,1.38
2023-03-25T20:11:47.893Z,0.93
2023-03-25T20:13:54.708Z,1.10
2023-03-25T20:16:00.023Z,1.00
2023-03-25T20:18:06.806Z,1.58
2023-03-25T20:20:15.972Z,0.90
2023-03-25T20:22:24.803Z,1.02
2023-03-25T20:24:30.209Z,1.25
2023-03-25T20:26:35.404Z,0.73
2023-03-25T20:28:40.792Z,1.02
2023-03-25T20:30:45.863Z,1.10
2023-03-25T20:32:52.018Z,2.05
2023-03-25T20:34:57.514Z,1.27
2023-03-25T20:37:05.183Z,1.00
2023-03-25T20:39:11.435Z,1.08
2023-03-25T20:41:16.456Z,0.98
2023-03-25T20:43:21.492Z,0.85
2023-03-25T20:45:29.563Z,0.80
2023-03-25T20:47:35.697Z,0.77
2023-03-25T20:49:40.879Z,1.00
2023-03-25T20:51:46.457Z,0.70
2023-03-25T20:53:54.537Z,0.93
2023-03-25T20:56:00.898Z,0.77
2023-03-25T20:58:06.654Z,1.30
2023-03-25T21:00:18.228Z,0.90
2023-03-25T21:02:24.041Z,0.80
2023-03-25T21:04:29.290Z,0.77
2023-03-25T21:06:34.817Z,0.70
2023-03-25T21:08:39.890Z,0.70
2023-03-25T21:10:51.565Z,0.50
2023-03-25T21:12:56.632Z,1.00
2023-03-25T21:15:01.645Z,0.80
2023-03-25T21:17:06.979Z,0.80
2023-03-25T21:19:12.022Z,1.15
2023-03-25T21:21:18.085Z,0.75
2023-03-25T21:23:28.801Z,0.90
2023-03-25T21:25:37.538Z,0.90
2023-03-25T21:27:46.959Z,0.80
2023-03-25T21:29:52.336Z,0.80
2023-03-25T21:31:57.868Z,0.77
2023-03-25T21:34:03.412Z,0.65
2023-03-25T21:36:11.954Z,0.88
2023-03-25T21:38:17.048Z,0.80
2023-03-25T21:40:39.891Z,0.75
2023-03-25T21:42:48.887Z,0.80
2023-03-25T21:44:53.923Z,0.85
2023-03-25T21:47:01.446Z,1.00
2023-03-25T21:49:06.539Z,0.80
2023-03-25T21:51:14.710Z,0.80
2023-03-25T21:53:20.853Z,0.88
2023-03-25T21:55:27.578Z,1.10
2023-03-25T21:57:38.222Z,0.93
2023-03-25T21:59:46.520Z,1.40
2023-03-25T22:01:52.887Z,1.10
2023-03-25T22:04:00.464Z,1.10
2023-03-25T22:06:06.824Z,1.23
2023-03-25T22:08:11.886Z,1.02
2023-03-25T22:10:17.043Z,1.00
2023-03-25T22:12:22.075Z,1.25
2023-03-25T22:14:27.576Z,0.98
2023-03-25T22:16:35.949Z,1.40
2023-03-25T22:18:42.492Z,1.20
2023-03-25T22:20:47.515Z,0.90
2023-03-25T22:22:53.917Z,1.05
2023-03-25T22:24:59.381Z,1.20
2023-03-25T22:27:04.432Z,1.15
2023-03-25T22:29:13.674Z,0.90
2023-03-25T22:31:21.598Z,1.25
2023-03-25T22:33:30.982Z,1.20
2023-03-25T22:35:41.331Z,1.10
2023-03-25T22:37:46.476Z,1.25
2023-03-25T22:39:51.786Z,1.35
2023-03-25T22:41:58.049Z,1.20
2023-03-25T22:44:03.538Z,1.80
2023-03-25T22:46:10.092Z,2.10
2023-03-25T22:48:15.200Z,1.98
2023-03-25T22:50:23.634Z,3.05
2023-03-25T22:52:28.823Z,2.35
2023-03-25T22:54:34.292Z,1.85
2023-03-25T22:56:40.161Z,1.83
2023-03-25T22:58:45.328Z,2.10
2023-03-25T23:00:52.490Z,1.90
2023-03-25T23:02:57.857Z,1.67
2023-03-25T23:05:03.165Z,2.30
2023-03-25T23:07:11.081Z,2.15
2023-03-25T23:09:36.643Z,1.85
2023-03-25T23:11:42.093Z,3.00
2023-03-25T23:13:50.912Z,3.20
2023-03-25T23:16:02.315Z,2.00
2023-03-25T23:18:07.666Z,1.77
2023-03-25T23:20:14.393Z,1.98
2023-03-25T23:22:22.813Z,2.67
2023-03-25T23:24:29.222Z,2.13
2023-03-25T23:26:39.165Z,1.88
2023-03-25T23:28:46.109Z,2.20
2023-03-25T23:30:51.477Z,1.80
2023-03-25T23:32:56.502Z,2.13
2023-03-25T23:35:03.689Z,2.17
2023-03-25T23:37:10.426Z,1.55
2023-03-25T23:39:22.894Z,1.75
2023-03-25T23:41:29.986Z,1.52
2023-03-25T23:43:36.396Z,1.48
2023-03-25T23:45:42.437Z,1.60
2023-03-25T23:47:49.296Z,1.92
2023-03-25T23:49:58.225Z,1.83
2023-03-25T23:52:03.500Z,1.73
2023-03-25T23:54:10.698Z,1.35
2023-03-25T23:56:20.728Z,1.65
2023-03-25T23:58:26.046Z,1.58
